createdAt,value
2019-02-08T00:00:35.332Z,24.00
2019-02-08T00:01:35.325Z,24.00
2019-02-08T00:02:35.313Z,24.00
2019-02-08T00:03:35.344Z,24.00
2019-02-08T00:04:35.299Z,24.00
2019-02-08T00:05:35.275Z,24.00
2019-02-08T00:06:35.270Z,24.00
2019-02-08T00:07:35.263Z,24.00
2019-02-08T00:08:45.946Z,24.00
2019-02-08T00:09:35.242Z,24.00
2019-02-08T00:10:35.225Z,24.00
2019-02-08T00:11:35.219Z,24.00
2019-02-08T00:12:35.203Z,20.00
2019-02-08T00:13:35.204Z,24.00
2019-02-08T00:14:35.227Z,24.00
2019-02-08T00:15:35.189Z,24.00
2019-02-08T00:16:35.172Z,24.00
2019-02-08T00:17:35.157Z,24.00
2019-02-08T00:18:35.152Z,24.00
2019-02-08T00:19:35.140Z,24.00
2019-02-08T00:20:35.161Z,24.00
2019-02-08T00:21:35.115Z,24.00
2019-02-08T00:22:35.096Z,24.00
2019-02-08T00:23:35.095Z,24.00
2019-02-08T00:24:35.077Z,24.00
2019-02-08T00:25:35.080Z,24.00
2019-02-08T00:26:35.108Z,24.00
2019-02-08T00:27:35.051Z,24.00
2019-02-08T00:28:35.054Z,24.00
2019-02-08T00:29:35.024Z,24.00
2019-02-08T00:30:35.020Z,24.00
2019-02-08T00:31:35.006Z,24.00
2019-02-08T00:32:35.035Z,24.00
2019-02-08T00:33:34.981Z,24.00
2019-02-08T00:34:34.971Z,24.00
2019-02-08T00:35:34.966Z,24.00
2019-02-08T00:36:34.948Z,24.00
2019-02-08T00:37:34.937Z,24.00
2019-02-08T00:38:34.979Z,24.00
2019-02-08T00:39:45.010Z,24.00
2019-02-08T00:40:34.904Z,24.00
2019-02-08T00:41:34.896Z,24.00
2019-02-08T00:42:34.890Z,24.00
2019-02-08T00:43:34.878Z,24.00
2019-02-08T00:44:34.918Z,24.00
2019-02-08T00:45:34.860Z,24.00
2019-02-08T00:46:34.847Z,24.00
2019-02-08T00:47:34.831Z,24.00
2019-02-08T00:48:34.827Z,24.00
2019-02-08T00:49:34.817Z,24.00
2019-02-08T00:50:35.040Z,24.00
2019-02-08T00:51:34.794Z,24.00
2019-02-08T00:52:34.777Z,24.00
2019-02-08T00:53:34.771Z,24.00
2019-02-08T00:54:34.761Z,24.00
2019-02-08T00:55:34.749Z,24.00
2019-02-08T00:56:34.775Z,24.00
2019-02-08T00:57:34.727Z,24.00
2019-02-08T00:58:34.715Z,24.00
2019-02-08T00:59:34.703Z,24.00
2019-02-08T01:00:34.700Z,24.00
2019-02-08T01:01:34.685Z,24.00
2019-02-08T01:02:34.719Z,24.00
2019-02-08T01:03:34.664Z,24.00
2019-02-08T01:04:34.658Z,24.00
2019-02-08T01:05:34.649Z,24.00
2019-02-08T01:06:34.631Z,24.00
2019-02-08T01:07:34.620Z,24.00
2019-02-08T01:08:34.652Z,24.00
2019-02-08T01:09:34.603Z,24.00
2019-02-08T01:10:46.104Z,24.00
2019-02-08T01:11:34.581Z,24.00
2019-02-08T01:12:34.566Z,24.00
2019-02-08T01:13:34.590Z,24.00
2019-02-08T01:14:34.615Z,24.00
2019-02-08T01:15:34.535Z,24.00
2019-02-08T01:16:34.522Z,24.00
2019-02-08T01:17:34.517Z,24.00
2019-02-08T01:18:34.510Z,24.00
2019-02-08T01:19:34.490Z,24.00
2019-02-08T01:20:34.504Z,24.00
2019-02-08T01:21:34.473Z,24.00
2019-02-08T01:22:34.465Z,24.00
2019-02-08T01:23:40.982Z,24.00
2019-02-08T01:24:35.437Z,24.00
2019-02-08T01:25:34.433Z,24.00
2019-02-08T01:26:34.433Z,24.00
2019-02-08T01:27:34.410Z,24.00
2019-02-08T01:28:34.398Z,24.00
2019-02-08T01:29:34.403Z,24.00
2019-02-08T01:30:34.379Z,24.00
2019-02-08T01:31:34.363Z,24.00
2019-02-08T01:32:34.393Z,24.00
2019-02-08T01:33:34.934Z,24.00
2019-02-08T01:34:34.329Z,24.00
2019-02-08T01:35:34.325Z,24.00
2019-02-08T01:36:34.313Z,24.00
2019-02-08T01:37:34.301Z,24.00
2019-02-08T01:38:34.461Z,24.00
2019-02-08T01:39:34.276Z,24.00
2019-02-08T01:40:34.271Z,24.00
2019-02-08T01:41:45.247Z,24.00
2019-02-08T01:42:34.254Z,24.00
2019-02-08T01:43:34.244Z,24.00
2019-02-08T01:44:34.393Z,24.00
2019-02-08T01:45:41.194Z,24.00
2019-02-08T01:46:34.204Z,24.00
2019-02-08T01:47:34.189Z,24.00
2019-02-08T01:48:41.159Z,24.00
2019-02-08T01:49:34.169Z,24.00
2019-02-08T01:50:34.209Z,24.00
2019-02-08T01:51:34.149Z,24.00
2019-02-08T01:52:34.137Z,24.00
2019-02-08T01:53:34.131Z,24.00
2019-02-08T01:54:34.120Z,24.00
2019-02-08T01:55:34.112Z,24.00
2019-02-08T01:56:34.529Z,24.00
2019-02-08T01:57:34.087Z,24.00
2019-02-08T01:58:34.074Z,24.00
2019-02-08T01:59:34.063Z,24.00
2019-02-08T02:00:34.051Z,24.00
2019-02-08T02:01:34.045Z,24.00
2019-02-08T02:02:34.074Z,24.00
2019-02-08T02:03:34.027Z,24.00
2019-02-08T02:04:34.020Z,24.00
2019-02-08T02:05:34.001Z,24.00
2019-02-08T02:06:34.001Z,24.00
2019-02-08T02:07:33.978Z,24.00
2019-02-08T02:08:34.007Z,24.00
2019-02-08T02:09:33.967Z,24.00
2019-02-08T02:10:33.951Z,24.00
2019-02-08T02:11:33.938Z,24.00
2019-02-08T02:12:33.926Z,24.00
2019-02-08T02:13:33.914Z,24.00
2019-02-08T02:14:33.939Z,24.00
2019-02-08T02:15:33.894Z,24.00
2019-02-08T02:16:33.886Z,24.00
2019-02-08T02:17:33.875Z,24.00
2019-02-08T02:18:33.870Z,24.00
2019-02-08T02:19:44.567Z,24.00
2019-02-08T02:20:33.844Z,24.00
2019-02-08T02:21:33.828Z,24.00
2019-02-08T02:22:33.825Z,20.00
2019-02-08T02:23:33.805Z,20.00
2019-02-08T02:24:33.803Z,20.00
2019-02-08T02:25:33.805Z,20.00
2019-02-08T02:26:33.775Z,20.00
2019-02-08T02:27:33.770Z,20.00
2019-02-08T02:28:33.753Z,20.00
2019-02-08T02:29:33.748Z,20.00
2019-02-08T02:30:33.739Z,24.00
2019-02-08T02:31:33.759Z,24.00
2019-02-08T02:32:33.717Z,24.00
2019-02-08T02:33:33.699Z,24.00
2019-02-08T02:34:33.693Z,24.00
2019-02-08T02:35:33.684Z,24.00
2019-02-08T02:36:33.669Z,24.00
2019-02-08T02:37:33.696Z,24.00
2019-02-08T02:38:33.648Z,24.00
2019-02-08T02:39:33.725Z,24.00
2019-02-08T02:40:33.630Z,24.00
2019-02-08T02:41:33.615Z,24.00
2019-02-08T02:42:33.607Z,24.00
2019-02-08T02:43:33.630Z,24.00
2019-02-08T02:44:33.586Z,24.00
2019-02-08T02:45:33.573Z,24.00
2019-02-08T02:46:33.560Z,24.00
2019-02-08T02:47:33.552Z,24.00
2019-02-08T02:48:33.572Z,24.00
2019-02-08T02:49:33.569Z,24.00
2019-02-08T02:50:43.528Z,24.00
2019-02-08T02:51:33.513Z,24.00
2019-02-08T02:52:33.497Z,24.00
2019-02-08T02:53:33.485Z,24.00
2019-02-08T02:54:33.472Z,24.00
2019-02-08T02:55:33.586Z,24.00
2019-02-08T02:56:33.458Z,24.00
2019-02-08T02:57:33.449Z,24.00
2019-02-08T02:58:33.437Z,24.00
2019-02-08T02:59:33.422Z,24.00
2019-02-08T03:00:33.492Z,24.00
2019-02-08T03:01:33.441Z,24.00
2019-02-08T03:02:33.395Z,24.00
2019-02-08T03:03:33.384Z,24.00
2019-02-08T03:04:33.417Z,24.00
2019-02-08T03:05:33.378Z,24.00
2019-02-08T03:06:33.346Z,24.00
2019-02-08T03:07:33.383Z,24.00
2019-02-08T03:08:33.329Z,28.00
2019-02-08T03:09:33.324Z,28.00
2019-02-08T03:10:33.309Z,28.00
2019-02-08T03:11:33.295Z,24.00
2019-02-08T03:12:33.283Z,24.00
2019-02-08T03:13:33.311Z,24.00
2019-02-08T03:14:33.278Z,24.00
2019-02-08T03:15:33.255Z,24.00
2019-02-08T03:16:33.250Z,24.00
2019-02-08T03:17:33.235Z,24.00
2019-02-08T03:18:33.295Z,24.00
2019-02-08T03:19:33.249Z,24.00
2019-02-08T03:20:33.199Z,24.00
2019-02-08T03:21:43.046Z,24.00
2019-02-08T03:22:33.172Z,24.00
2019-02-08T03:23:33.167Z,24.00
2019-02-08T03:24:33.154Z,24.00
2019-02-08T03:25:33.198Z,24.00
2019-02-08T03:26:33.141Z,24.00
2019-02-08T03:27:33.121Z,24.00
2019-02-08T03:28:33.116Z,24.00
2019-02-08T03:29:33.116Z,24.00
2019-02-08T03:30:33.116Z,24.00
2019-02-08T03:31:33.177Z,24.00
2019-02-08T03:32:33.072Z,24.00
2019-02-08T03:33:33.097Z,24.00
2019-02-08T03:34:33.048Z,24.00
2019-02-08T03:35:33.038Z,24.00
2019-02-08T03:36:33.022Z,24.00
2019-02-08T03:37:33.065Z,24.00
2019-02-08T03:38:33.007Z,24.00
2019-02-08T03:39:32.991Z,24.00
2019-02-08T03:40:32.979Z,24.00
2019-02-08T03:41:32.971Z,24.00
2019-02-08T03:42:32.965Z,24.00
2019-02-08T03:43:33.070Z,24.00
2019-02-08T03:44:32.935Z,24.00
2019-02-08T03:45:33.013Z,24.00
2019-02-08T03:46:32.923Z,24.00
2019-02-08T03:47:32.912Z,24.00
2019-02-08T03:48:32.894Z,24.00
2019-02-08T03:49:32.929Z,24.00
2019-02-08T03:50:32.884Z,24.00
2019-02-08T03:51:32.863Z,24.00
2019-02-08T03:52:43.359Z,24.00
2019-02-08T03:53:32.840Z,24.00
2019-02-08T03:54:32.838Z,24.00
2019-02-08T03:55:32.857Z,24.00
2019-02-08T03:56:32.809Z,24.00
2019-02-08T03:57:32.803Z,24.00
2019-02-08T03:58:32.794Z,24.00
2019-02-08T03:59:32.780Z,24.00
2019-02-08T04:00:32.776Z,24.00
2019-02-08T04:01:32.800Z,24.00
2019-02-08T04:02:32.749Z,24.00
2019-02-08T04:03:32.738Z,24.00
2019-02-08T04:04:32.735Z,28.00
2019-02-08T04:05:32.710Z,28.00
2019-02-08T04:06:32.702Z,24.00
2019-02-08T04:07:32.735Z,28.00
2019-02-08T04:08:32.686Z,28.00
2019-02-08T04:09:32.673Z,24.00
2019-02-08T04:10:32.660Z,28.00
2019-02-08T04:11:32.654Z,24.00
2019-02-08T04:12:32.645Z,24.00
2019-02-08T04:13:32.669Z,24.00
2019-02-08T04:14:32.615Z,24.00
2019-02-08T04:15:32.613Z,24.00
2019-02-08T04:16:32.596Z,24.00
2019-02-08T04:17:32.590Z,24.00
2019-02-08T04:18:32.572Z,24.00
2019-02-08T04:19:32.609Z,24.00
2019-02-08T04:20:32.559Z,24.00
2019-02-08T04:21:32.539Z,24.00
2019-02-08T04:22:32.536Z,24.00
2019-02-08T04:23:43.107Z,24.00
2019-02-08T04:24:32.513Z,24.00
2019-02-08T04:25:32.649Z,24.00
2019-02-08T04:26:32.493Z,24.00
2019-02-08T04:27:32.479Z,24.00
2019-02-08T04:28:32.469Z,24.00
2019-02-08T04:29:32.463Z,24.00
2019-02-08T04:30:32.453Z,24.00
2019-02-08T04:31:32.468Z,24.00
2019-02-08T04:32:32.430Z,24.00
2019-02-08T04:33:32.413Z,24.00
2019-02-08T04:34:32.402Z,24.00
2019-02-08T04:35:32.388Z,24.00
2019-02-08T04:36:32.377Z,24.00
2019-02-08T04:37:32.408Z,24.00
2019-02-08T04:38:32.364Z,24.00
2019-02-08T04:39:32.352Z,24.00
2019-02-08T04:40:32.336Z,24.00
2019-02-08T04:41:32.334Z,24.00
2019-02-08T04:42:32.315Z,24.00
2019-02-08T04:43:32.351Z,28.00
2019-02-08T04:44:32.332Z,28.00
2019-02-08T04:45:32.282Z,28.00
2019-02-08T04:46:32.276Z,28.00
2019-02-08T04:47:32.268Z,24.00
2019-02-08T04:48:32.261Z,24.00
2019-02-08T04:49:32.282Z,24.00
2019-02-08T04:50:32.238Z,24.00
2019-02-08T04:51:32.223Z,24.00
2019-02-08T04:52:32.210Z,24.00
2019-02-08T04:53:32.205Z,24.00
2019-02-08T04:54:42.643Z,24.00
2019-02-08T04:55:32.174Z,24.00
2019-02-08T04:56:32.164Z,24.00
2019-02-08T04:57:32.156Z,24.00
2019-02-08T04:58:35.682Z,24.00
2019-02-08T04:59:32.138Z,24.00
2019-02-08T05:00:32.164Z,24.00
2019-02-08T05:01:32.121Z,24.00
2019-02-08T05:02:32.108Z,24.00
2019-02-08T05:03:32.093Z,24.00
2019-02-08T05:04:32.080Z,24.00
2019-02-08T05:05:32.071Z,24.00
2019-02-08T05:06:32.101Z,24.00
2019-02-08T05:07:32.050Z,24.00
2019-02-08T05:08:32.035Z,24.00
2019-02-08T05:09:32.025Z,24.00
2019-02-08T05:10:32.020Z,24.00
2019-02-08T05:11:32.009Z,24.00
2019-02-08T05:12:32.037Z,24.00
2019-02-08T05:13:31.989Z,24.00
2019-02-08T05:14:31.972Z,24.00
2019-02-08T05:15:31.970Z,24.00
2019-02-08T05:16:31.952Z,24.00
2019-02-08T05:17:31.942Z,24.00
2019-02-08T05:18:31.975Z,24.00
2019-02-08T05:19:31.941Z,20.00
2019-02-08T05:20:31.926Z,20.00
2019-02-08T05:21:31.899Z,20.00
2019-02-08T05:22:31.893Z,20.00
2019-02-08T05:23:31.875Z,24.00
2019-02-08T05:24:31.910Z,24.00
2019-02-08T05:25:42.703Z,24.00
2019-02-08T05:26:31.851Z,24.00
2019-02-08T05:27:31.841Z,24.00
2019-02-08T05:28:31.826Z,24.00
2019-02-08T05:29:31.822Z,24.00
2019-02-08T05:30:32.086Z,28.00
2019-02-08T05:31:31.798Z,28.00
2019-02-08T05:32:31.782Z,28.00
2019-02-08T05:33:31.773Z,24.00
2019-02-08T05:34:31.761Z,24.00
2019-02-08T05:35:31.751Z,24.00
2019-02-08T05:36:31.760Z,24.00
2019-02-08T05:37:31.727Z,28.00
2019-02-08T05:38:31.720Z,28.00
2019-02-08T05:39:31.711Z,28.00
2019-02-08T05:40:31.695Z,28.00
2019-02-08T05:41:31.682Z,28.00
2019-02-08T05:42:31.692Z,32.00
2019-02-08T05:43:31.666Z,36.00
2019-02-08T05:44:31.658Z,36.00
2019-02-08T05:45:31.652Z,40.00
2019-02-08T05:46:31.637Z,40.00
2019-02-08T05:47:31.628Z,44.00
2019-02-08T05:48:31.634Z,48.00
2019-02-08T05:49:31.603Z,52.00
2019-02-08T05:50:31.592Z,52.00
2019-02-08T05:51:31.581Z,56.00
2019-02-08T05:52:31.573Z,60.00
2019-02-08T05:53:31.562Z,64.00
2019-02-08T05:54:31.588Z,72.00
2019-02-08T05:55:31.536Z,76.00
2019-02-08T05:56:41.704Z,80.00
2019-02-08T05:57:31.518Z,84.00
2019-02-08T05:58:31.505Z,84.00
2019-02-08T05:59:31.493Z,80.00
2019-02-08T06:00:31.553Z,84.00
2019-02-08T06:01:31.475Z,88.00
2019-02-08T06:02:31.461Z,92.00
2019-02-08T06:03:31.458Z,96.00
2019-02-08T06:04:31.455Z,96.00
2019-02-08T06:05:31.438Z,96.00
2019-02-08T06:06:31.466Z,100.00
2019-02-08T06:07:31.416Z,104.00
2019-02-08T06:08:31.397Z,108.00
2019-02-08T06:09:31.393Z,120.00
2019-02-08T06:10:31.374Z,128.00
2019-02-08T06:11:33.062Z,136.00
2019-02-08T06:12:31.379Z,140.00
2019-02-08T06:13:31.348Z,144.00
2019-02-08T06:14:31.334Z,148.00
2019-02-08T06:15:31.324Z,152.00
2019-02-08T06:16:31.323Z,160.00
2019-02-08T06:17:31.357Z,164.00
2019-02-08T06:18:31.311Z,176.00
2019-02-08T06:19:31.278Z,184.00
2019-02-08T06:20:31.272Z,196.00
2019-02-08T06:21:31.260Z,196.00
2019-02-08T06:22:31.250Z,204.00
2019-02-08T06:23:31.250Z,208.00
2019-02-08T06:24:31.270Z,212.00
2019-02-08T06:25:31.221Z,224.00
2019-02-08T06:26:31.204Z,252.00
2019-02-08T06:27:43.118Z,276.00
2019-02-08T06:28:31.191Z,296.00
2019-02-08T06:29:31.177Z,296.00
2019-02-08T06:30:31.187Z,296.00
2019-02-08T06:31:31.154Z,312.00
2019-02-08T06:32:31.144Z,328.00
2019-02-08T06:33:31.150Z,348.00
2019-02-08T06:34:31.132Z,376.00
2019-02-08T06:35:31.116Z,412.00
2019-02-08T06:36:31.127Z,456.00
2019-02-08T06:37:31.105Z,500.00
2019-02-08T06:38:31.083Z,524.00
2019-02-08T06:39:31.066Z,516.00
2019-02-08T06:40:31.066Z,508.00
2019-02-08T06:41:31.044Z,520.00
2019-02-08T06:42:31.073Z,528.00
2019-02-08T06:43:31.023Z,520.00
2019-02-08T06:44:31.017Z,508.00
2019-02-08T06:45:31.014Z,532.00
2019-02-08T06:46:30.993Z,544.00
2019-02-08T06:47:30.994Z,552.00
2019-02-08T06:48:30.989Z,568.00
2019-02-08T06:49:30.963Z,592.00
2019-02-08T06:50:30.949Z,616.00
2019-02-08T06:51:30.954Z,652.00
2019-02-08T06:52:30.938Z,696.00
2019-02-08T06:53:30.924Z,736.00
2019-02-08T06:54:30.956Z,744.00
2019-02-08T06:55:30.909Z,736.00
2019-02-08T06:56:30.898Z,736.00
2019-02-08T06:57:30.880Z,760.00
2019-02-08T06:58:43.695Z,736.00
2019-02-08T06:59:30.856Z,716.00
2019-02-08T07:00:30.880Z,684.00
2019-02-08T07:01:30.835Z,676.00
2019-02-08T07:02:30.827Z,696.00
2019-02-08T07:03:30.877Z,724.00
2019-02-08T07:04:30.801Z,732.00
2019-02-08T07:05:30.798Z,744.00
2019-02-08T07:06:30.819Z,760.00
2019-02-08T07:07:30.771Z,756.00
2019-02-08T07:08:30.762Z,756.00
2019-02-08T07:09:30.747Z,752.00
2019-02-08T07:10:30.742Z,796.00
2019-02-08T07:11:30.727Z,872.00
2019-02-08T07:12:30.756Z,928.00
2019-02-08T07:13:30.723Z,944.00
2019-02-08T07:14:30.699Z,908.00
2019-02-08T07:15:30.688Z,896.00
2019-02-08T07:16:30.679Z,912.00
2019-02-08T07:17:30.685Z,972.00
2019-02-08T07:18:30.828Z,992.00
2019-02-08T07:19:30.643Z,988.00
2019-02-08T07:20:30.635Z,984.00
2019-02-08T07:21:30.624Z,964.00
2019-02-08T07:22:30.610Z,952.00
2019-02-08T07:23:30.835Z,944.00
2019-02-08T07:24:30.621Z,1016.00
2019-02-08T07:25:30.580Z,1140.00
2019-02-08T07:26:31.153Z,1228.00
2019-02-08T07:27:30.581Z,1320.00
2019-02-08T07:28:30.547Z,1424.00
2019-02-08T07:29:42.689Z,1512.00
2019-02-08T07:30:30.520Z,1588.00
2019-02-08T07:31:30.510Z,1556.00
2019-02-08T07:32:30.506Z,1640.00
2019-02-08T07:33:30.497Z,1696.00
2019-02-08T07:34:30.485Z,1776.00
2019-02-08T07:35:30.649Z,1868.00
2019-02-08T07:36:30.468Z,1920.00
2019-02-08T07:37:30.447Z,1952.00
2019-02-08T07:38:30.436Z,1960.00
2019-02-08T07:39:30.422Z,2032.00
2019-02-08T07:40:30.438Z,2208.00
2019-02-08T07:41:30.444Z,2388.00
2019-02-08T07:42:30.396Z,2444.00
2019-02-08T07:43:30.380Z,2528.00
2019-02-08T07:44:30.371Z,2660.00
2019-02-08T07:45:30.381Z,2656.00
2019-02-08T07:46:30.626Z,2564.00
2019-02-08T07:47:30.528Z,2444.00
2019-02-08T07:48:30.332Z,2316.00
2019-02-08T07:49:30.319Z,2228.00
2019-02-08T07:50:30.311Z,2200.00
2019-02-08T07:51:30.321Z,1988.00
2019-02-08T07:52:30.283Z,1980.00
2019-02-08T07:53:30.320Z,2012.00
2019-02-08T07:54:30.267Z,2244.00
2019-02-08T07:55:30.253Z,2344.00
2019-02-08T07:56:31.120Z,2424.00
2019-02-08T07:57:30.235Z,2508.00
2019-02-08T07:58:30.221Z,2632.00
2019-02-08T07:59:30.255Z,2792.00
2019-02-08T08:00:41.782Z,2908.00
2019-02-08T08:01:30.214Z,2900.00
2019-02-08T08:02:30.182Z,2908.00
2019-02-08T08:03:30.172Z,2892.00
2019-02-08T08:04:30.159Z,2760.00
2019-02-08T08:05:30.182Z,2760.00
2019-02-08T08:06:30.137Z,2676.00
2019-02-08T08:07:30.131Z,2472.00
2019-02-08T08:08:30.131Z,2440.00
2019-02-08T08:09:30.116Z,2468.00
2019-02-08T08:10:30.120Z,2348.00
2019-02-08T08:11:30.126Z,2340.00
2019-02-08T08:12:30.075Z,2368.00
2019-02-08T08:13:30.058Z,2332.00
2019-02-08T08:14:30.055Z,2352.00
2019-02-08T08:15:30.039Z,2500.00
2019-02-08T08:16:30.041Z,2836.00
2019-02-08T08:17:30.203Z,3156.00
2019-02-08T08:18:30.012Z,3252.00
2019-02-08T08:19:30.000Z,3332.00
2019-02-08T08:20:29.990Z,3208.00
2019-02-08T08:21:29.991Z,3348.00
2019-02-08T08:22:29.970Z,3516.00
2019-02-08T08:23:30.001Z,3636.00
2019-02-08T08:24:29.943Z,3564.00
2019-02-08T08:25:34.081Z,3688.00
2019-02-08T08:26:29.922Z,3436.00
2019-02-08T08:27:29.908Z,2880.00
2019-02-08T08:28:29.944Z,3116.00
2019-02-08T08:29:29.959Z,3196.00
2019-02-08T08:30:29.876Z,3444.00
2019-02-08T08:31:43.734Z,3172.00
2019-02-08T08:32:29.858Z,3272.00
2019-02-08T08:33:29.857Z,3240.00
2019-02-08T08:34:29.841Z,2936.00
2019-02-08T08:35:29.867Z,2696.00
2019-02-08T08:36:29.826Z,2956.00
2019-02-08T08:37:29.808Z,2888.00
2019-02-08T08:38:29.799Z,2780.00
2019-02-08T08:39:29.788Z,2756.00
2019-02-08T08:40:29.772Z,2992.00
2019-02-08T08:41:29.810Z,3164.00
2019-02-08T08:42:29.753Z,3404.00
2019-02-08T08:43:29.740Z,3424.00
2019-02-08T08:44:29.738Z,3496.00
2019-02-08T08:45:29.721Z,3532.00
2019-02-08T08:46:29.715Z,3348.00
2019-02-08T08:47:29.804Z,3196.00
2019-02-08T08:48:29.686Z,3212.00
2019-02-08T08:49:29.691Z,3088.00
2019-02-08T08:50:29.665Z,3260.00
2019-02-08T08:51:29.662Z,3556.00
2019-02-08T08:52:29.642Z,3552.00
2019-02-08T08:53:29.670Z,3540.00
2019-02-08T08:54:29.627Z,3752.00
2019-02-08T08:55:29.638Z,3576.00
2019-02-08T08:56:29.602Z,3468.00
2019-02-08T08:57:29.591Z,3428.00
2019-02-08T08:58:29.574Z,3568.00
2019-02-08T08:59:29.603Z,3668.00
2019-02-08T09:00:29.560Z,3764.00
2019-02-08T09:01:29.543Z,3920.00
2019-02-08T09:02:39.751Z,3936.00
2019-02-08T09:03:29.523Z,3684.00
2019-02-08T09:04:29.509Z,4112.00
2019-02-08T09:05:29.543Z,4164.00
2019-02-08T09:06:29.488Z,4012.00
2019-02-08T09:07:29.483Z,4028.00
2019-02-08T09:08:29.468Z,3980.00
2019-02-08T09:09:29.467Z,3860.00
2019-02-08T09:10:29.450Z,3752.00
2019-02-08T09:11:29.539Z,3960.00
2019-02-08T09:12:29.429Z,4024.00
2019-02-08T09:13:29.418Z,3872.00
2019-02-08T09:14:29.406Z,3880.00
2019-02-08T09:15:29.399Z,3916.00
2019-02-08T09:16:29.380Z,3832.00
2019-02-08T09:17:29.415Z,4044.00
2019-02-08T09:18:29.364Z,4068.00
2019-02-08T09:19:29.353Z,4200.00
2019-02-08T09:20:29.342Z,3876.00
2019-02-08T09:21:29.332Z,4012.00
2019-02-08T09:22:29.363Z,4280.00
2019-02-08T09:23:29.431Z,3992.00
2019-02-08T09:24:29.296Z,4120.00
2019-02-08T09:25:29.285Z,4144.00
2019-02-08T09:26:29.307Z,3968.00
2019-02-08T09:27:29.262Z,4232.00
2019-02-08T09:28:29.251Z,4212.00
2019-02-08T09:29:29.319Z,4212.00
2019-02-08T09:30:29.236Z,4380.00
2019-02-08T09:31:29.223Z,4080.00
2019-02-08T09:32:29.208Z,4132.00
2019-02-08T09:33:39.729Z,4136.00
2019-02-08T09:34:29.189Z,4000.00
2019-02-08T09:35:29.217Z,3980.00
2019-02-08T09:36:29.167Z,3944.00
2019-02-08T09:37:29.153Z,3996.00
2019-02-08T09:38:29.147Z,4140.00
2019-02-08T09:39:29.137Z,4504.00
2019-02-08T09:40:29.132Z,4648.00
2019-02-08T09:41:29.166Z,4944.00
2019-02-08T09:42:29.107Z,4660.00
2019-02-08T09:43:29.100Z,4636.00
2019-02-08T09:44:29.088Z,4608.00
2019-02-08T09:45:29.075Z,4380.00
2019-02-08T09:46:29.058Z,4240.00
2019-02-08T09:47:29.107Z,4640.00
2019-02-08T09:48:29.036Z,4636.00
2019-02-08T09:49:29.029Z,4552.00
2019-02-08T09:50:29.017Z,4488.00
2019-02-08T09:51:29.004Z,4328.00
2019-02-08T09:52:29.003Z,4300.00
2019-02-08T09:53:29.001Z,4312.00
2019-02-08T09:54:28.969Z,4164.00
2019-02-08T09:55:28.964Z,4072.00
2019-02-08T09:56:28.948Z,3920.00
2019-02-08T09:57:28.940Z,3684.00
2019-02-08T09:58:28.928Z,3508.00
2019-02-08T09:59:28.964Z,3372.00
2019-02-08T10:00:28.907Z,3228.00
2019-02-08T10:01:28.895Z,3296.00
2019-02-08T10:02:28.888Z,3420.00
2019-02-08T10:03:28.961Z,3196.00
2019-02-08T10:04:39.809Z,3132.00
2019-02-08T10:05:28.876Z,3236.00
2019-02-08T10:06:28.862Z,3372.00
2019-02-08T10:07:28.849Z,3156.00
2019-02-08T10:08:28.833Z,3348.00
2019-02-08T10:09:28.818Z,3392.00
2019-02-08T10:10:28.856Z,3408.00
2019-02-08T10:11:28.793Z,3460.00
2019-02-08T10:12:28.803Z,3416.00
2019-02-08T10:13:28.781Z,3560.00
2019-02-08T10:14:28.774Z,3672.00
2019-02-08T10:15:28.745Z,3540.00
2019-02-08T10:16:28.772Z,3420.00
2019-02-08T10:17:28.727Z,3540.00
2019-02-08T10:18:28.737Z,3580.00
2019-02-08T10:19:28.704Z,3436.00
2019-02-08T10:20:28.750Z,3476.00
2019-02-08T10:21:28.691Z,3344.00
2019-02-08T10:22:28.713Z,3348.00
2019-02-08T10:23:28.660Z,3440.00
2019-02-08T10:24:28.655Z,3232.00
2019-02-08T10:25:28.649Z,3180.00
2019-02-08T10:26:28.625Z,3440.00
2019-02-08T10:27:28.614Z,3524.00
2019-02-08T10:28:28.640Z,3576.00
2019-02-08T10:29:28.608Z,3348.00
2019-02-08T10:30:28.611Z,3284.00
2019-02-08T10:31:28.675Z,3412.00
2019-02-08T10:32:28.572Z,3596.00
2019-02-08T10:33:28.562Z,3988.00
2019-02-08T10:34:28.612Z,3804.00
2019-02-08T10:35:39.014Z,3780.00
2019-02-08T10:36:28.529Z,3728.00
2019-02-08T10:37:28.506Z,3480.00
2019-02-08T10:38:28.517Z,3504.00
2019-02-08T10:39:28.492Z,3696.00
2019-02-08T10:40:28.545Z,3468.00
2019-02-08T10:41:30.552Z,3524.00
2019-02-08T10:42:28.453Z,3460.00
2019-02-08T10:43:28.447Z,3608.00
2019-02-08T10:44:28.444Z,3812.00
2019-02-08T10:45:28.419Z,3952.00
2019-02-08T10:46:28.585Z,3972.00
2019-02-08T10:47:28.404Z,3792.00
2019-02-08T10:48:28.391Z,3680.00
2019-02-08T10:49:28.394Z,3812.00
2019-02-08T10:50:29.257Z,3832.00
2019-02-08T10:51:28.359Z,3824.00
2019-02-08T10:52:28.530Z,3644.00
2019-02-08T10:53:28.338Z,3444.00
2019-02-08T10:54:28.330Z,3400.00
2019-02-08T10:55:28.324Z,3568.00
2019-02-08T10:56:28.306Z,3544.00
2019-02-08T10:57:28.289Z,3652.00
2019-02-08T10:58:28.323Z,3716.00
2019-02-08T10:59:28.275Z,3816.00
2019-02-08T11:00:28.267Z,3824.00
2019-02-08T11:01:28.262Z,4044.00
2019-02-08T11:02:28.245Z,4132.00
2019-02-08T11:03:28.224Z,4324.00
2019-02-08T11:04:28.263Z,3952.00
2019-02-08T11:05:28.204Z,3732.00
2019-02-08T11:06:40.749Z,3760.00
2019-02-08T11:07:28.357Z,3728.00
2019-02-08T11:08:28.178Z,3760.00
2019-02-08T11:09:28.169Z,3988.00
2019-02-08T11:10:28.197Z,3968.00
2019-02-08T11:11:28.140Z,3920.00
2019-02-08T11:12:28.130Z,4012.00
2019-02-08T11:13:28.122Z,4068.00
2019-02-08T11:14:28.119Z,4088.00
2019-02-08T11:15:28.099Z,4020.00
2019-02-08T11:16:28.119Z,3904.00
2019-02-08T11:17:28.088Z,3888.00
2019-02-08T11:18:28.065Z,4020.00
2019-02-08T11:19:28.058Z,3920.00
2019-02-08T11:20:28.041Z,3740.00
2019-02-08T11:21:28.030Z,3832.00
2019-02-08T11:22:28.228Z,3788.00
2019-02-08T11:23:28.014Z,3856.00
2019-02-08T11:24:28.004Z,3688.00
2019-02-08T11:25:27.991Z,3604.00
2019-02-08T11:26:27.975Z,3512.00
2019-02-08T11:27:27.970Z,3504.00
2019-02-08T11:28:28.009Z,3388.00
2019-02-08T11:29:27.948Z,3380.00
2019-02-08T11:30:27.939Z,3296.00
2019-02-08T11:31:27.923Z,3284.00
2019-02-08T11:32:42.483Z,3368.00
2019-02-08T11:33:28.930Z,3404.00
2019-02-08T11:34:28.328Z,3432.00
2019-02-08T11:35:27.897Z,3440.00
2019-02-08T11:36:27.871Z,3372.00
2019-02-08T11:37:39.234Z,3052.00
2019-02-08T11:38:27.920Z,3068.00
2019-02-08T11:39:28.231Z,2928.00
2019-02-08T11:40:27.828Z,2992.00
2019-02-08T11:41:27.815Z,2964.00
2019-02-08T11:42:27.803Z,2872.00
2019-02-08T11:43:27.835Z,2844.00
2019-02-08T11:44:27.782Z,2964.00
2019-02-08T11:45:27.793Z,2952.00
2019-02-08T11:46:27.765Z,2836.00
2019-02-08T11:47:27.749Z,2772.00
2019-02-08T11:48:27.745Z,2728.00
2019-02-08T11:49:27.732Z,2812.00
2019-02-08T11:50:27.722Z,2768.00
2019-02-08T11:51:27.758Z,2704.00
2019-02-08T11:52:27.698Z,2780.00
2019-02-08T11:53:27.691Z,2820.00
2019-02-08T11:54:27.684Z,2816.00
2019-02-08T11:55:27.671Z,2628.00
2019-02-08T11:56:30.097Z,2612.00
2019-02-08T11:57:27.717Z,2616.00
2019-02-08T11:58:27.636Z,2552.00
2019-02-08T11:59:27.626Z,2520.00
2019-02-08T12:00:27.609Z,2548.00
2019-02-08T12:01:27.607Z,2484.00
2019-02-08T12:02:27.593Z,2348.00
2019-02-08T12:03:27.631Z,2292.00
2019-02-08T12:04:27.573Z,2272.00
2019-02-08T12:05:27.557Z,2364.00
2019-02-08T12:06:27.543Z,2528.00
2019-02-08T12:07:27.542Z,2684.00
2019-02-08T12:08:38.352Z,2628.00
2019-02-08T12:09:27.515Z,2384.00
2019-02-08T12:10:27.506Z,2320.00
2019-02-08T12:11:27.505Z,2316.00
2019-02-08T12:12:27.480Z,2384.00
2019-02-08T12:13:27.474Z,2432.00
2019-02-08T12:14:27.504Z,2500.00
2019-02-08T12:15:27.466Z,2548.00
2019-02-08T12:16:27.442Z,2612.00
2019-02-08T12:17:27.430Z,2584.00
2019-02-08T12:18:27.423Z,2688.00
2019-02-08T12:19:27.409Z,2744.00
2019-02-08T12:20:27.432Z,2604.00
2019-02-08T12:21:27.390Z,2704.00
2019-02-08T12:22:27.380Z,2788.00
2019-02-08T12:23:27.369Z,2804.00
2019-02-08T12:24:27.352Z,2792.00
2019-02-08T12:25:27.350Z,2892.00
2019-02-08T12:26:27.378Z,2984.00
2019-02-08T12:27:27.331Z,2968.00
2019-02-08T12:28:27.312Z,2884.00
2019-02-08T12:29:27.306Z,2892.00
2019-02-08T12:30:27.293Z,2904.00